Time;durP1;ratioP1;P1;durP2;ratioP2;P2;SDS_P1;SDS_P2;PMS_P1;PMS_P2;Temp;Humidity;BMP_temperature;BMP_pressure;BME280_temperature;BME280_humidity;BME280_pressure;Samples;Min_cycle;Max_cycle;Signal;HPM_P1;HPM_P2
2024/01/21 00:01:29;;;;;;;3.83;2.80;;;;;;;;;;4348078;32;315724;-76
2024/01/21 00:03:57;;;;;;;2.57;2.17;;;;;;;;;;4350034;32;315758;-76
2024/01/21 00:06:26;;;;;;;3.23;2.33;;;;;;;;;;4360409;32;315689;-77
2024/01/21 00:08:53;;;;;;;2.17;1.97;;;;;;;;;;4350019;32;316199;-77
2024/01/21 00:11:23;;;;;;;4.57;2.67;;;;;;;;;;4357202;32;330382;-76
2024/01/21 00:13:50;;;;;;;4.10;2.83;;;;;;;;;;4358483;32;315742;-76
2024/01/21 00:16:18;;;;;;;3.93;2.57;;;;;;;;;;4359645;32;315579;-76
2024/01/21 00:18:44;;;;;;;7.37;2.97;;;;;;;;;;4361661;32;315696;-76
2024/01/21 00:21:12;;;;;;;4.67;2.60;;;;;;;;;;4343602;32;316046;-76
2024/01/21 00:23:40;;;;;;;2.60;2.33;;;;;;;;;;4360839;32;314717;-76
2024/01/21 00:26:09;;;;;;;3.43;2.40;;;;;;;;;;4351422;32;315707;-76
2024/01/21 00:28:35;;;;;;;4.53;3.00;;;;;;;;;;4360800;32;316309;-76
2024/01/21 00:31:04;;;;;;;4.43;3.63;;;;;;;;;;4344441;32;333876;-76
2024/01/21 00:33:34;;;;;;;4.50;2.70;;;;;;;;;;4359267;32;314577;-76
2024/01/21 00:36:02;;;;;;;4.27;2.63;;;;;;;;;;4351424;32;315963;-76
2024/01/21 00:38:30;;;;;;;3.30;2.40;;;;;;;;;;4361522;32;315358;-76
2024/01/21 00:40:59;;;;;;;3.03;2.47;;;;;;;;;;4348111;32;315525;-77
2024/01/21 00:43:29;;;;;;;8.53;4.23;;;;;;;;;;4360278;32;316036;-76
2024/01/21 00:45:55;;;;;;;5.17;3.40;;;;;;;;;;4351095;32;315919;-76
2024/01/21 00:48:23;;;;;;;6.17;2.57;;;;;;;;;;4359078;32;315836;-76
2024/01/21 00:50:50;;;;;;;6.53;2.33;;;;;;;;;;4348383;32;316012;-75
2024/01/21 00:53:20;;;;;;;3.33;2.10;;;;;;;;;;4354575;32;315649;-76
2024/01/21 00:55:48;;;;;;;7.13;4.40;;;;;;;;;;4359289;32;315746;-76
2024/01/21 00:58:18;;;;;;;8.97;3.80;;;;;;;;;;4350741;32;315918;-75
2024/01/21 01:00:45;;;;;;;5.67;4.17;;;;;;;;;;4361040;32;315444;-75
2024/01/21 01:03:12;;;;;;;3.93;3.13;;;;;;;;;;4343848;32;315839;-77
2024/01/21 01:05:39;;;;;;;6.80;3.47;;;;;;;;;;4361785;32;316100;-75
2024/01/21 01:08:08;;;;;;;2.47;2.27;;;;;;;;;;4341825;32;316086;-76
2024/01/21 01:10:36;;;;;;;5.87;3.50;;;;;;;;;;4350316;32;316011;-75
2024/01/21 01:13:04;;;;;;;7.00;3.80;;;;;;;;;;4330857;32;316036;-75
2024/01/21 01:15:35;;;;;;;5.63;2.60;;;;;;;;;;4343519;32;316297;-76
2024/01/21 01:18:04;;;;;;;4.07;3.03;;;;;;;;;;4338746;32;316413;-76
2024/01/21 01:20:32;;;;;;;4.03;2.40;;;;;;;;;;4359489;32;316342;-76
2024/01/21 01:22:59;;;;;;;3.13;2.63;;;;;;;;;;4345472;32;315838;-75
2024/01/21 01:25:27;;;;;;;4.13;2.37;;;;;;;;;;4359927;32;316053;-77
2024/01/21 01:27:54;;;;;;;4.97;2.10;;;;;;;;;;4348954;32;316212;-75
2024/01/21 01:30:21;;;;;;;2.80;2.13;;;;;;;;;;4402044;32;316097;-76
2024/01/21 01:32:50;;;;;;;4.17;2.50;;;;;;;;;;4408596;32;316305;-75
2024/01/21 01:35:17;;;;;;;2.30;2.07;;;;;;;;;;4387791;32;415304;-76
2024/01/21 01:37:46;;;;;;;2.93;2.17;;;;;;;;;;4408996;32;316223;-76
2024/01/21 01:40:17;;;;;;;5.83;3.50;;;;;;;;;;4398841;32;316317;-76
2024/01/21 01:42:45;;;;;;;5.77;4.27;;;;;;;;;;4408222;32;316293;-76
2024/01/21 01:45:13;;;;;;;5.60;3.57;;;;;;;;;;4392668;32;316122;-76
2024/01/21 01:47:40;;;;;;;5.17;3.90;;;;;;;;;;4405016;32;316288;-76
2024/01/21 01:50:09;;;;;;;4.80;3.77;;;;;;;;;;4398702;32;316008;-76
2024/01/21 01:52:36;;;;;;;5.43;4.40;;;;;;;;;;4408704;32;315996;-76
2024/01/21 01:55:04;;;;;;;8.87;5.00;;;;;;;;;;4387910;32;316256;-76
2024/01/21 01:57:33;;;;;;;4.50;3.57;;;;;;;;;;4407234;32;316000;-76
2024/01/21 02:00:01;;;;;;;6.67;4.17;;;;;;;;;;4395825;32;315952;-76
2024/01/21 02:02:29;;;;;;;4.13;3.27;;;;;;;;;;4396114;32;316200;-76
2024/01/21 02:05:00;;;;;;;27.03;12.93;;;;;;;;;;4382834;32;316039;-76
2024/01/21 02:07:30;;;;;;;14.63;7.93;;;;;;;;;;4395327;32;318145;-76
2024/01/21 02:10:01;;;;;;;10.63;6.13;;;;;;;;;;4383773;32;317287;-76
2024/01/21 02:12:30;;;;;;;15.57;9.33;;;;;;;;;;4396228;32;316947;-76
2024/01/21 02:14:57;;;;;;;12.27;5.40;;;;;;;;;;4378498;32;317798;-76
2024/01/21 02:17:25;;;;;;;7.03;4.37;;;;;;;;;;4396333;32;317066;-76
2024/01/21 02:19:52;;;;;;;6.77;3.77;;;;;;;;;;4400025;32;315477;-77
2024/01/21 02:22:23;;;;;;;8.23;4.10;;;;;;;;;;4408401;32;315417;-76
2024/01/21 02:27:32;;;;;;;11.60;5.83;;;;;;;;;;4409452;32;316370;-77
2024/01/21 02:30:01;;;;;;;10.50;5.50;;;;;;;;;;4400264;32;317011;-76
2024/01/21 02:32:28;;;;;;;16.50;6.83;;;;;;;;;;4407431;32;317448;-76
2024/01/21 02:34:56;;;;;;;15.23;7.77;;;;;;;;;;4399938;32;317162;-76
2024/01/21 02:37:25;;;;;;;11.53;6.20;;;;;;;;;;4407471;32;317156;-76
2024/01/21 02:39:55;;;;;;;14.03;5.73;;;;;;;;;;4395750;32;317159;-76
2024/01/21 02:42:26;;;;;;;7.37;4.77;;;;;;;;;;4410255;32;316833;-76
2024/01/21 02:44:52;;;;;;;7.43;4.57;;;;;;;;;;4398054;32;315639;-76
2024/01/21 02:47:20;;;;;;;5.17;3.80;;;;;;;;;;4403257;32;315963;-76
2024/01/21 02:49:47;;;;;;;5.27;3.60;;;;;;;;;;4410009;32;315741;-76
2024/01/21 02:52:14;;;;;;;3.30;2.63;;;;;;;;;;4378826;32;316278;-76
2024/01/21 02:54:41;;;;;;;2.67;2.27;;;;;;;;;;4409253;32;326430;-76
2024/01/21 02:57:10;;;;;;;3.60;3.03;;;;;;;;;;4394064;32;315604;-76
2024/01/21 02:59:40;;;;;;;5.10;3.17;;;;;;;;;;4409945;32;322952;-76
2024/01/21 03:02:10;;;;;;;3.03;2.63;;;;;;;;;;4400002;32;314796;-76
2024/01/21 03:04:37;;;;;;;7.03;2.97;;;;;;;;;;4410573;32;315789;-76
2024/01/21 03:07:04;;;;;;;4.60;3.10;;;;;;;;;;4393417;32;316505;-76
2024/01/21 03:09:31;;;;;;;5.03;3.17;;;;;;;;;;4410624;32;315966;-76
2024/01/21 03:12:00;;;;;;;8.90;5.63;;;;;;;;;;4397523;32;314913;-76
2024/01/21 03:14:29;;;;;;;5.80;3.80;;;;;;;;;;4406973;32;315958;-76
2024/01/21 03:17:00;;;;;;;5.67;3.70;;;;;;;;;;4395374;32;349815;-76
2024/01/21 03:19:30;;;;;;;4.83;3.43;;;;;;;;;;4409573;32;315786;-76
2024/01/21 03:21:56;;;;;;;9.27;3.93;;;;;;;;;;4396022;32;316248;-76
2024/01/21 03:24:23;;;;;;;12.50;5.27;;;;;;;;;;4410569;32;315835;-76
2024/01/21 03:26:50;;;;;;;7.93;4.47;;;;;;;;;;4410186;32;316999;-76
2024/01/21 03:29:17;;;;;;;11.73;5.10;;;;;;;;;;4391165;32;417018;-76
2024/01/21 03:31:45;;;;;;;14.20;5.90;;;;;;;;;;4377487;32;316506;-76
2024/01/21 03:34:11;;;;;;;9.23;4.87;;;;;;;;;;4394451;32;317294;-76
2024/01/21 03:36:39;;;;;;;11.73;5.40;;;;;;;;;;4407739;32;355833;-76
2024/01/21 03:39:06;;;;;;;10.10;4.60;;;;;;;;;;4377796;32;317150;-76
2024/01/21 03:41:33;;;;;;;7.20;4.17;;;;;;;;;;4402731;32;315728;-76
2024/01/21 03:44:01;;;;;;;3.50;2.50;;;;;;;;;;4396872;32;316301;-76
2024/01/21 03:46:29;;;;;;;5.57;3.77;;;;;;;;;;4409141;32;316568;-76
2024/01/21 03:49:03;;;;;;;5.60;4.37;;;;;;;;;;4396596;32;315925;-76
2024/01/21 03:51:31;;;;;;;5.33;4.07;;;;;;;;;;4410320;32;316441;-76
2024/01/21 03:53:58;;;;;;;4.87;3.07;;;;;;;;;;4400416;32;316015;-76
2024/01/21 03:56:27;;;;;;;4.80;2.80;;;;;;;;;;4407235;32;314507;-76
2024/01/21 03:58:54;;;;;;;4.10;2.87;;;;;;;;;;4397800;32;315617;-76
2024/01/21 04:01:20;;;;;;;9.30;3.57;;;;;;;;;;4404150;32;316739;-77
2024/01/21 04:03:49;;;;;;;8.07;3.20;;;;;;;;;;4409710;32;331293;-76
2024/01/21 04:06:20;;;;;;;6.67;3.30;;;;;;;;;;4390331;32;415622;-76
2024/01/21 04:08:49;;;;;;;4.43;2.50;;;;;;;;;;4410023;32;315751;-76
2024/01/21 04:11:17;;;;;;;2.93;2.20;;;;;;;;;;4370293;32;416705;-76
2024/01/21 04:13:44;;;;;;;2.93;2.30;;;;;;;;;;4392995;32;332249;-76
2024/01/21 04:16:12;;;;;;;7.10;2.87;;;;;;;;;;4384760;32;314968;-76
2024/01/21 04:18:40;;;;;;;2.47;1.90;;;;;;;;;;4398155;32;314683;-76
2024/01/21 04:21:07;;;;;;;3.87;2.37;;;;;;;;;;4392844;32;315057;-76
2024/01/21 04:23:35;;;;;;;5.27;2.93;;;;;;;;;;4409993;32;314577;-76
2024/01/21 04:26:02;;;;;;;6.63;3.80;;;;;;;;;;4397205;32;314537;-76
2024/01/21 04:28:29;;;;;;;8.40;4.03;;;;;;;;;;4409553;32;315709;-76
2024/01/21 04:30:58;;;;;;;9.00;4.47;;;;;;;;;;4396257;32;315662;-76
2024/01/21 04:33:26;;;;;;;6.83;4.10;;;;;;;;;;4406290;32;314546;-76
2024/01/21 04:35:55;;;;;;;7.97;5.03;;;;;;;;;;4395767;32;315607;-76
2024/01/21 04:38:23;;;;;;;5.63;3.80;;;;;;;;;;4403362;32;315845;-76
2024/01/21 04:40:52;;;;;;;5.17;2.90;;;;;;;;;;4378408;32;322167;-77
2024/01/21 04:43:22;;;;;;;5.70;4.07;;;;;;;;;;4377276;32;315857;-76
2024/01/21 04:45:49;;;;;;;7.70;4.13;;;;;;;;;;4372724;32;316128;-76
2024/01/21 04:48:16;;;;;;;6.03;3.40;;;;;;;;;;4381073;32;412437;-76
2024/01/21 04:50:42;;;;;;;6.77;3.37;;;;;;;;;;4384877;32;315615;-76
2024/01/21 04:53:09;;;;;;;5.83;3.03;;;;;;;;;;4371878;32;314700;-76
2024/01/21 04:55:36;;;;;;;4.07;2.80;;;;;;;;;;4390257;32;315825;-76
2024/01/21 04:58:04;;;;;;;5.43;3.10;;;;;;;;;;4386418;32;315803;-76
2024/01/21 05:00:31;;;;;;;3.20;2.27;;;;;;;;;;4396022;32;314426;-76
2024/01/21 05:02:59;;;;;;;3.73;2.87;;;;;;;;;;4391584;32;315646;-76
2024/01/21 05:05:26;;;;;;;3.63;2.57;;;;;;;;;;4406992;32;315671;-76
2024/01/21 05:07:57;;;;;;;3.57;2.67;;;;;;;;;;4384632;32;315883;-76
2024/01/21 05:10:24;;;;;;;3.33;3.00;;;;;;;;;;4393206;32;315644;-76
2024/01/21 05:12:50;;;;;;;5.57;3.30;;;;;;;;;;4384685;32;315950;-76
2024/01/21 05:15:20;;;;;;;4.20;3.03;;;;;;;;;;4386598;32;315452;-75
2024/01/21 05:17:47;;;;;;;5.17;3.57;;;;;;;;;;4364492;32;344695;-75
2024/01/21 05:20:14;;;;;;;7.13;3.67;;;;;;;;;;4395348;32;315883;-75
2024/01/21 05:22:42;;;;;;;4.70;3.10;;;;;;;;;;4405607;32;315735;-75
2024/01/21 05:25:11;;;;;;;4.07;2.70;;;;;;;;;;4392285;32;315772;-75
2024/01/21 05:27:40;;;;;;;4.87;3.33;;;;;;;;;;4410148;32;315903;-76
2024/01/21 05:30:07;;;;;;;3.80;2.90;;;;;;;;;;4397727;32;314604;-76
2024/01/21 05:32:35;;;;;;;6.17;3.30;;;;;;;;;;4406364;32;315842;-76
2024/01/21 05:35:06;;;;;;;4.63;3.50;;;;;;;;;;4373915;32;327413;-76
2024/01/21 05:37:34;;;;;;;4.23;3.40;;;;;;;;;;4407951;32;314850;-76
2024/01/21 05:40:03;;;;;;;6.90;3.87;;;;;;;;;;4403353;32;351048;-76
2024/01/21 05:42:31;;;;;;;5.53;4.03;;;;;;;;;;4413755;32;315556;-76
2024/01/21 05:44:58;;;;;;;3.30;2.83;;;;;;;;;;4399277;32;315673;-76
2024/01/21 05:47:26;;;;;;;4.03;2.83;;;;;;;;;;4409707;32;314682;-75
2024/01/21 05:49:55;;;;;;;3.03;2.33;;;;;;;;;;4402212;32;316453;-77
2024/01/21 05:52:21;;;;;;;3.20;2.67;;;;;;;;;;4399388;32;315672;-77
2024/01/21 05:54:48;;;;;;;4.27;2.50;;;;;;;;;;4401643;32;315738;-76
2024/01/21 05:57:16;;;;;;;2.83;2.13;;;;;;;;;;4392377;32;416672;-76
2024/01/21 05:59:43;;;;;;;4.30;3.17;;;;;;;;;;4411856;32;315541;-76
2024/01/21 06:02:12;;;;;;;4.53;3.30;;;;;;;;;;4396418;32;314690;-75
2024/01/21 06:04:40;;;;;;;3.93;3.20;;;;;;;;;;4411511;32;315692;-76
2024/01/21 06:07:11;;;;;;;4.13;3.50;;;;;;;;;;4395124;32;316072;-76
2024/01/21 06:09:38;;;;;;;4.03;3.17;;;;;;;;;;4412838;32;315943;-76
2024/01/21 06:12:05;;;;;;;6.33;4.37;;;;;;;;;;4403394;32;315820;-76
2024/01/21 06:14:32;;;;;;;5.77;4.60;;;;;;;;;;4413722;32;315677;-77
2024/01/21 06:16:59;;;;;;;7.10;4.37;;;;;;;;;;4396196;32;316167;-76
2024/01/21 06:19:25;;;;;;;17.17;8.33;;;;;;;;;;4403122;32;316083;-76
2024/01/21 06:21:52;;;;;;;19.90;11.70;;;;;;;;;;4392362;32;327906;-76
2024/01/21 06:24:21;;;;;;;24.30;13.70;;;;;;;;;;4411648;32;318463;-76
2024/01/21 06:26:53;;;;;;;21.97;13.90;;;;;;;;;;4396636;32;317963;-76
2024/01/21 06:29:21;;;;;;;47.83;21.53;;;;;;;;;;4376859;32;418998;-77
2024/01/21 06:31:47;;;;;;;42.87;19.40;;;;;;;;;;4397357;32;318422;-77
2024/01/21 06:34:18;;;;;;;20.63;11.70;;;;;;;;;;4402370;32;318122;-77
2024/01/21 06:36:46;;;;;;;18.17;10.37;;;;;;;;;;4412264;32;317945;-76
2024/01/21 06:39:13;;;;;;;20.83;11.63;;;;;;;;;;4393991;32;318266;-75
2024/01/21 06:41:42;;;;;;;31.97;13.90;;;;;;;;;;4388264;32;317699;-77
2024/01/21 06:44:11;;;;;;;22.03;14.07;;;;;;;;;;4384957;32;318344;-77
2024/01/21 06:46:42;;;;;;;27.43;16.13;;;;;;;;;;4378803;32;316682;-77
2024/01/21 06:49:09;;;;;;;20.07;12.37;;;;;;;;;;4369060;32;318231;-76
2024/01/21 06:51:43;;;;;;;17.07;10.00;;;;;;;;;;4397555;32;318219;-76
2024/01/21 06:54:11;;;;;;;19.30;11.10;;;;;;;;;;4393684;32;318463;-77
2024/01/21 06:56:38;;;;;;;27.67;15.67;;;;;;;;;;4409801;32;317595;-75
2024/01/21 06:59:06;;;;;;;28.20;14.23;;;;;;;;;;4363044;32;355169;-76
2024/01/21 07:01:34;;;;;;;41.27;21.57;;;;;;;;;;4348540;32;318315;-76
2024/01/21 07:04:02;;;;;;;39.57;21.03;;;;;;;;;;4338714;32;317549;-76
2024/01/21 07:06:29;;;;;;;34.73;17.60;;;;;;;;;;4347613;32;318247;-76
2024/01/21 07:08:56;;;;;;;21.33;13.17;;;;;;;;;;4334072;32;318112;-76
2024/01/21 07:11:25;;;;;;;21.27;10.43;;;;;;;;;;4360272;32;318853;-76
2024/01/21 07:13:54;;;;;;;26.43;16.10;;;;;;;;;;4352164;32;318621;-76
2024/01/21 07:16:23;;;;;;;16.63;10.50;;;;;;;;;;4360751;32;317907;-76
2024/01/21 07:18:53;;;;;;;20.10;13.27;;;;;;;;;;4347680;32;318017;-77
2024/01/21 07:21:21;;;;;;;13.23;11.77;;;;;;;;;;4368541;32;317788;-77
2024/01/21 07:23:48;;;;;;;14.27;11.87;;;;;;;;;;4411542;32;317724;-77
2024/01/21 07:26:18;;;;;;;8.00;5.70;;;;;;;;;;4402341;32;318358;-77
2024/01/21 07:28:44;;;;;;;6.97;3.57;;;;;;;;;;4397983;32;315724;-77
2024/01/21 07:31:11;;;;;;;4.27;3.23;;;;;;;;;;4385325;32;315852;-77
2024/01/21 07:33:42;;;;;;;3.90;3.40;;;;;;;;;;4393130;32;316197;-77
2024/01/21 07:36:10;;;;;;;5.33;3.63;;;;;;;;;;4405181;32;316156;-78
2024/01/21 07:38:36;;;;;;;30.20;9.10;;;;;;;;;;4382644;32;316350;-76
2024/01/21 07:41:04;;;;;;;17.93;9.10;;;;;;;;;;4396399;32;315798;-76
2024/01/21 07:43:32;;;;;;;5.97;3.83;;;;;;;;;;4395658;32;317152;-76
2024/01/21 07:45:59;;;;;;;5.37;3.70;;;;;;;;;;4408136;32;316016;-77
2024/01/21 07:48:25;;;;;;;7.87;5.33;;;;;;;;;;4395407;32;316753;-76
2024/01/21 07:50:54;;;;;;;3.33;3.03;;;;;;;;;;4403239;32;316407;-76
2024/01/21 07:53:22;;;;;;;5.43;3.63;;;;;;;;;;4396808;32;316067;-76
2024/01/21 07:55:53;;;;;;;7.20;3.73;;;;;;;;;;4409596;32;316133;-77
2024/01/21 07:58:21;;;;;;;3.60;3.30;;;;;;;;;;4399818;32;315752;-77
2024/01/21 08:00:50;;;;;;;2.83;1.93;;;;;;;;;;4401554;32;316092;-76
2024/01/21 08:03:21;;;;;;;3.37;3.07;;;;;;;;;;4406152;32;316969;-77
2024/01/21 08:05:47;;;;;;;4.50;2.90;;;;;;;;;;4393526;32;415604;-76
2024/01/21 08:08:15;;;;;;;4.10;3.57;;;;;;;;;;4397057;32;315894;-76
2024/01/21 08:10:42;;;;;;;8.77;6.27;;;;;;;;;;4389634;32;316226;-76
2024/01/21 08:13:10;;;;;;;8.87;5.10;;;;;;;;;;4408734;32;315192;-76
2024/01/21 08:15:37;;;;;;;7.10;4.40;;;;;;;;;;4395077;32;316206;-76
2024/01/21 08:18:06;;;;;;;7.73;5.57;;;;;;;;;;4401775;32;316137;-76
2024/01/21 08:20:33;;;;;;;11.93;7.23;;;;;;;;;;4383967;32;316959;-76
2024/01/21 08:23:02;;;;;;;12.37;6.83;;;;;;;;;;4402757;32;351686;-76
2024/01/21 08:25:33;;;;;;;6.33;4.10;;;;;;;;;;4391809;32;316688;-76
2024/01/21 08:28:00;;;;;;;4.77;3.40;;;;;;;;;;4407906;32;316438;-76
2024/01/21 08:30:27;;;;;;;5.53;3.73;;;;;;;;;;4396148;32;316435;-76
2024/01/21 08:32:54;;;;;;;3.73;2.80;;;;;;;;;;4404957;32;316179;-75
2024/01/21 08:35:22;;;;;;;4.73;3.47;;;;;;;;;;4384209;32;316127;-78
2024/01/21 08:37:50;;;;;;;3.93;2.63;;;;;;;;;;4401628;32;316425;-77
2024/01/21 08:40:17;;;;;;;3.83;2.73;;;;;;;;;;4380908;32;314744;-77
2024/01/21 08:42:46;;;;;;;4.73;2.57;;;;;;;;;;4387656;32;416505;-77
2024/01/21 08:45:16;;;;;;;6.40;4.37;;;;;;;;;;4382447;32;316224;-77
2024/01/21 08:47:43;;;;;;;6.97;3.37;;;;;;;;;;4383293;32;316386;-77
2024/01/21 08:50:11;;;;;;;4.70;3.67;;;;;;;;;;4380077;32;315719;-77
2024/01/21 08:52:41;;;;;;;5.13;4.07;;;;;;;;;;4369332;32;315782;-77
2024/01/21 08:55:09;;;;;;;4.07;3.33;;;;;;;;;;4390295;32;333494;-77
2024/01/21 08:57:35;;;;;;;6.53;4.23;;;;;;;;;;4383033;32;316351;-77
2024/01/21 09:00:06;;;;;;;5.13;2.80;;;;;;;;;;4392921;32;315880;-77
2024/01/21 09:02:33;;;;;;;2.80;2.40;;;;;;;;;;4376874;32;316196;-76
2024/01/21 09:05:01;;;;;;;3.63;3.00;;;;;;;;;;4393827;32;316321;-77
2024/01/21 09:07:28;;;;;;;3.00;2.70;;;;;;;;;;4382092;32;316299;-77
2024/01/21 09:09:54;;;;;;;2.90;2.10;;;;;;;;;;4391802;32;316015;-77
2024/01/21 09:12:22;;;;;;;6.93;4.93;;;;;;;;;;4381003;32;334260;-77
2024/01/21 09:14:50;;;;;;;3.20;2.63;;;;;;;;;;4386947;32;316619;-77
2024/01/21 09:17:19;;;;;;;6.20;4.07;;;;;;;;;;4392100;32;315582;-77
2024/01/21 09:19:45;;;;;;;5.87;3.60;;;;;;;;;;4366129;32;415684;-77
2024/01/21 09:22:13;;;;;;;3.97;2.70;;;;;;;;;;4398610;32;316733;-77
2024/01/21 09:24:41;;;;;;;4.47;3.33;;;;;;;;;;4391209;32;316456;-77
2024/01/21 09:27:08;;;;;;;2.87;2.27;;;;;;;;;;4408671;32;315724;-77
2024/01/21 09:29:35;;;;;;;2.77;2.23;;;;;;;;;;4398164;32;315912;-76
2024/01/21 09:32:03;;;;;;;5.00;2.80;;;;;;;;;;4408556;32;316442;-76
2024/01/21 09:34:32;;;;;;;2.57;2.13;;;;;;;;;;4383984;32;315954;-76
2024/01/21 09:36:58;;;;;;;3.57;2.67;;;;;;;;;;4407819;32;314344;-77
2024/01/21 09:39:26;;;;;;;3.03;2.43;;;;;;;;;;4396803;32;324185;-77
2024/01/21 09:41:56;;;;;;;4.00;2.43;;;;;;;;;;4407254;32;316090;-77
2024/01/21 09:44:27;;;;;;;2.53;2.17;;;;;;;;;;4397606;32;316271;-77
2024/01/21 09:46:56;;;;;;;2.97;2.10;;;;;;;;;;4405328;32;315810;-77
2024/01/21 09:49:24;;;;;;;4.50;2.97;;;;;;;;;;4395534;32;349070;-77
2024/01/21 09:51:55;;;;;;;4.70;3.90;;;;;;;;;;4406347;32;316254;-77
2024/01/21 09:54:25;;;;;;;2.37;1.97;;;;;;;;;;4398656;32;316787;-77
2024/01/21 09:56:53;;;;;;;2.97;2.30;;;;;;;;;;4400643;32;316111;-77
2024/01/21 09:59:22;;;;;;;3.40;2.80;;;;;;;;;;4397124;32;316084;-77
2024/01/21 10:01:52;;;;;;;4.73;3.17;;;;;;;;;;4408690;32;316215;-77
2024/01/21 10:04:20;;;;;;;5.93;3.23;;;;;;;;;;4408595;32;316522;-77
2024/01/21 10:06:50;;;;;;;6.17;4.50;;;;;;;;;;4380217;32;415374;-77
2024/01/21 10:09:21;;;;;;;6.20;3.67;;;;;;;;;;4389784;32;316647;-77
2024/01/21 10:11:52;;;;;;;7.30;4.63;;;;;;;;;;4380374;32;414749;-76
2024/01/21 10:14:19;;;;;;;9.53;4.30;;;;;;;;;;4382809;32;316140;-77
2024/01/21 10:16:47;;;;;;;14.13;4.83;;;;;;;;;;4384834;32;316216;-77
2024/01/21 10:19:15;;;;;;;4.93;3.13;;;;;;;;;;4396761;32;356876;-77
2024/01/21 10:21:43;;;;;;;3.17;2.33;;;;;;;;;;4395239;32;316004;-77
2024/01/21 10:24:14;;;;;;;5.93;3.87;;;;;;;;;;4408630;32;314757;-77
2024/01/21 10:26:47;;;;;;;4.63;2.23;;;;;;;;;;4394458;32;316253;-77
2024/01/21 10:29:19;;;;;;;3.17;2.27;;;;;;;;;;4411636;32;315476;-78
2024/01/21 10:31:48;;;;;;;3.10;2.20;;;;;;;;;;4395751;32;414999;-77
2024/01/21 10:34:15;;;;;;;3.20;2.20;;;;;;;;;;4409287;32;323991;-77
2024/01/21 10:36:46;;;;;;;5.33;2.70;;;;;;;;;;4393237;32;315832;-77
2024/01/21 10:39:19;;;;;;;3.47;2.70;;;;;;;;;;4410860;32;315587;-76
2024/01/21 10:41:47;;;;;;;2.83;2.17;;;;;;;;;;4397553;32;415743;-76
2024/01/21 10:44:16;;;;;;;4.50;2.67;;;;;;;;;;4409691;32;316313;-76
2024/01/21 10:46:45;;;;;;;3.57;3.00;;;;;;;;;;4393626;32;316137;-76
2024/01/21 10:49:13;;;;;;;2.17;1.97;;;;;;;;;;4410480;32;316340;-76
2024/01/21 10:51:42;;;;;;;6.50;4.37;;;;;;;;;;4400923;32;316658;-76
2024/01/21 10:54:09;;;;;;;3.60;2.20;;;;;;;;;;4410067;32;315671;-78
2024/01/21 10:56:37;;;;;;;5.93;3.80;;;;;;;;;;4393957;32;315648;-77
2024/01/21 10:59:07;;;;;;;3.13;1.83;;;;;;;;;;4410716;32;315998;-77
2024/01/21 11:01:35;;;;;;;2.40;1.87;;;;;;;;;;4385018;32;315860;-77
2024/01/21 11:04:08;;;;;;;3.67;2.37;;;;;;;;;;4405908;32;315285;-77
2024/01/21 11:06:37;;;;;;;15.90;8.67;;;;;;;;;;4378517;32;316487;-77
2024/01/21 11:09:08;;;;;;;14.17;7.83;;;;;;;;;;4408198;32;317048;-77
2024/01/21 11:11:44;;;;;;;7.00;3.30;;;;;;;;;;4399749;32;317593;-77
2024/01/21 11:14:32;;;;;;;2.43;1.93;;;;;;;;;;4379243;32;316147;-77
2024/01/21 11:17:00;;;;;;;7.70;4.63;;;;;;;;;;4350316;32;416654;-77
2024/01/21 11:19:33;;;;;;;29.57;14.90;;;;;;;;;;4352700;32;316060;-77
2024/01/21 11:22:04;;;;;;;6.17;3.47;;;;;;;;;;4362446;32;318259;-77
2024/01/21 11:24:32;;;;;;;6.10;3.80;;;;;;;;;;4345902;32;316184;-77
2024/01/21 11:27:01;;;;;;;2.27;1.77;;;;;;;;;;4359395;32;316477;-78
2024/01/21 11:29:31;;;;;;;3.40;1.50;;;;;;;;;;4349185;32;316038;-77
2024/01/21 11:32:02;;;;;;;5.73;1.97;;;;;;;;;;4361531;32;337234;-77
2024/01/21 11:34:36;;;;;;;3.07;2.37;;;;;;;;;;4348774;32;316877;-77
2024/01/21 11:37:05;;;;;;;2.07;1.57;;;;;;;;;;4362768;32;316235;-77
2024/01/21 11:39:34;;;;;;;3.43;1.70;;;;;;;;;;4351771;32;315996;-77
2024/01/21 11:42:04;;;;;;;6.50;3.37;;;;;;;;;;4362024;32;316157;-77
2024/01/21 11:44:32;;;;;;;1.90;1.47;;;;;;;;;;4342754;32;316182;-78
2024/01/21 11:47:04;;;;;;;2.80;1.90;;;;;;;;;;4350818;32;315903;-77
2024/01/21 11:49:34;;;;;;;3.10;2.40;;;;;;;;;;4348899;32;316801;-77
2024/01/21 11:52:05;;;;;;;8.03;4.87;;;;;;;;;;4361183;32;316202;-78
2024/01/21 11:54:33;;;;;;;7.50;3.80;;;;;;;;;;4334295;32;316008;-77
2024/01/21 11:57:00;;;;;;;4.17;2.90;;;;;;;;;;4348112;32;351390;-77
2024/01/21 11:59:29;;;;;;;8.47;5.27;;;;;;;;;;4350961;32;341563;-77
2024/01/21 12:01:58;;;;;;;6.33;4.40;;;;;;;;;;4361483;32;316452;-77
2024/01/21 12:04:29;;;;;;;2.77;2.33;;;;;;;;;;4351603;32;316179;-77
2024/01/21 12:06:56;;;;;;;2.60;1.83;;;;;;;;;;4360468;32;315954;-78
2024/01/21 12:09:24;;;;;;;2.90;1.50;;;;;;;;;;4346783;32;315265;-77
2024/01/21 12:11:53;;;;;;;5.53;3.53;;;;;;;;;;4347789;32;314451;-77
2024/01/21 12:14:22;;;;;;;9.40;4.43;;;;;;;;;;4345646;32;316183;-77
2024/01/21 12:16:54;;;;;;;2.70;2.30;;;;;;;;;;4341114;32;315892;-77
2024/01/21 12:19:24;;;;;;;28.43;15.20;;;;;;;;;;4342445;32;315482;-77
2024/01/21 12:21:55;;;;;;;18.27;10.37;;;;;;;;;;4361998;32;318130;-78
2024/01/21 12:24:24;;;;;;;8.03;3.80;;;;;;;;;;4352122;32;318141;-77
2024/01/21 12:26:53;;;;;;;12.73;5.00;;;;;;;;;;4354947;32;315581;-77
2024/01/21 12:29:20;;;;;;;6.43;3.80;;;;;;;;;;4349481;32;317009;-77
2024/01/21 12:31:48;;;;;;;10.17;6.17;;;;;;;;;;4362014;32;315270;-76
2024/01/21 12:34:18;;;;;;;6.13;3.40;;;;;;;;;;4360388;32;316708;-78
2024/01/21 12:36:47;;;;;;;3.57;2.43;;;;;;;;;;4343418;32;415735;-77
2024/01/21 12:39:16;;;;;;;2.80;2.23;;;;;;;;;;4362081;32;315899;-78
2024/01/21 12:41:43;;;;;;;1.97;1.40;;;;;;;;;;4382144;32;316288;-76
2024/01/21 12:44:11;;;;;;;4.87;4.30;;;;;;;;;;4408281;32;316019;-76
2024/01/21 12:46:42;;;;;;;1.77;1.63;;;;;;;;;;4392783;32;315770;-77
2024/01/21 12:49:09;;;;;;;3.63;1.90;;;;;;;;;;4395240;32;350154;-77
2024/01/21 12:51:38;;;;;;;8.10;7.37;;;;;;;;;;4383801;32;315330;-77
2024/01/21 12:54:06;;;;;;;37.47;25.90;;;;;;;;;;4391259;32;315922;-77
2024/01/21 12:56:37;;;;;;;64.67;36.10;;;;;;;;;;4370988;32;317387;-77
2024/01/21 12:59:05;;;;;;;114.37;63.30;;;;;;;;;;4389944;32;318375;-77
2024/01/21 13:01:35;;;;;;;23.17;13.20;;;;;;;;;;4381552;32;318647;-77
2024/01/21 13:04:02;;;;;;;28.17;17.10;;;;;;;;;;4398914;32;317343;-77
2024/01/21 13:06:32;;;;;;;42.67;26.70;;;;;;;;;;4393777;32;317586;-78
2024/01/21 13:08:59;;;;;;;12.37;8.73;;;;;;;;;;4407630;32;318289;-77
2024/01/21 13:11:26;;;;;;;16.57;9.00;;;;;;;;;;4394409;32;317216;-77
2024/01/21 13:13:54;;;;;;;15.47;8.20;;;;;;;;;;4389916;32;316386;-77
2024/01/21 13:16:24;;;;;;;25.03;14.13;;;;;;;;;;4394158;32;317054;-77
2024/01/21 13:18:51;;;;;;;21.67;11.30;;;;;;;;;;4396268;32;318219;-77
2024/01/21 13:21:17;;;;;;;17.50;9.87;;;;;;;;;;4367885;32;318340;-77
2024/01/21 13:23:46;;;;;;;9.07;5.87;;;;;;;;;;4392226;32;343605;-78
2024/01/21 13:26:15;;;;;;;28.57;13.13;;;;;;;;;;4383687;32;324298;-77
2024/01/21 13:30:43;;;;;;;5.20;4.17;;;;;;;;;;4386261;32;318247;-77
2024/01/21 13:31:39;;;;;;;1.70;1.50;;;;;;;;;;4379606;32;387033;-77
2024/01/21 13:34:06;;;;;;;2.80;2.07;;;;;;;;;;4393966;32;315745;-78
2024/01/21 13:36:35;;;;;;;6.47;3.07;;;;;;;;;;4376751;32;315687;-77
2024/01/21 13:39:04;;;;;;;22.87;12.07;;;;;;;;;;4393954;32;316061;-77
2024/01/21 13:41:32;;;;;;;6.53;4.10;;;;;;;;;;4390299;32;318387;-76
2024/01/21 13:43:59;;;;;;;11.60;4.93;;;;;;;;;;4407372;32;316095;-78
2024/01/21 13:46:27;;;;;;;10.67;3.87;;;;;;;;;;4385938;32;317784;-77
2024/01/21 13:48:57;;;;;;;11.07;4.03;;;;;;;;;;4402781;32;316430;-79
2024/01/21 13:51:25;;;;;;;5.97;3.63;;;;;;;;;;4391207;32;317130;-79
2024/01/21 13:53:52;;;;;;;2.93;2.50;;;;;;;;;;4405212;32;316196;-78
2024/01/21 13:56:22;;;;;;;5.83;2.50;;;;;;;;;;4399641;32;316321;-79
2024/01/21 13:58:49;;;;;;;10.17;5.93;;;;;;;;;;4403449;32;327468;-78
2024/01/21 14:01:18;;;;;;;27.97;15.10;;;;;;;;;;4392779;32;317470;-77
2024/01/21 14:03:44;;;;;;;12.80;6.73;;;;;;;;;;4401958;32;357419;-77
2024/01/21 14:06:18;;;;;;;4.93;3.80;;;;;;;;;;4394462;32;316355;-77
2024/01/21 14:08:47;;;;;;;16.50;10.27;;;;;;;;;;4379834;32;415697;-77
2024/01/21 14:11:14;;;;;;;28.67;14.03;;;;;;;;;;4385763;32;318346;-77
2024/01/21 14:13:42;;;;;;;18.13;9.20;;;;;;;;;;4405031;32;317468;-76
2024/01/21 14:16:09;;;;;;;55.17;24.63;;;;;;;;;;4408737;32;317281;-76
2024/01/21 14:18:36;;;;;;;33.40;16.67;;;;;;;;;;4374056;32;358334;-77
2024/01/21 14:21:06;;;;;;;65.53;29.67;;;;;;;;;;4407822;32;316942;-76
2024/01/21 14:23:36;;;;;;;33.47;17.83;;;;;;;;;;4394525;32;318068;-76
2024/01/21 14:26:07;;;;;;;42.73;20.50;;;;;;;;;;4404219;32;317653;-77
2024/01/21 14:28:40;;;;;;;94.23;37.03;;;;;;;;;;4373993;32;318258;-76
2024/01/21 14:31:08;;;;;;;46.80;21.90;;;;;;;;;;4396123;32;317964;-76
2024/01/21 14:33:36;;;;;;;36.50;20.23;;;;;;;;;;4386231;32;318207;-76